| Date | Time | Temp. (oF) | Dew Point (oF) | Rel. Hum. (%) | Press. (in.) | Wind Dir. | Wind Speed (mph) | Hourly Rainfall (in.) |
|
|---|---|---|---|---|---|---|---|---|---|
| 1 | 10/30 | 00:00 | 47 | 46 | 99 | 29.09 | NW | 12 | 0.00 |
| 2 | 10/29 | 23:00 | 46 | 45 | 100 | 29.07 | NW | 13 | 0.17 |
| 3 | 10/29 | 22:00 | 49 | 49 | 100 | 29.19 | NW | 9 | 0.21 |
| 4 | 10/29 | 21:00 | 51 | 50 | 100 | 29.21 | W | 4 | 0.12 |
| 5 | 10/29 | 20:00 | 53 | 52 | 97 | 29.21 | NW | 4 | 0.02 |
| 6 | 10/29 | 19:00 | 61 | 60 | 100 | 29.24 | NNE | 4 | 0.06 |
| 7 | 10/29 | 18:00 | 62 | 62 | 100 | 29.29 | ESE | 5 | 0.01 |
| 8 | 10/29 | 17:00 | 62 | 62 | 100 | 29.33 | ESE | 4 | 0.01 |
| 9 | 10/29 | 16:00 | 62 | 62 | 100 | 29.37 | ENE | 2 | 0.00 |
| 10 | 10/29 | 15:00 | 62 | 61 | 99 | 29.39 | E | 2 | 0.00 |
| 11 | 10/29 | 14:00 | 62 | 62 | 100 | 29.44 | SE | 4 | 0.01 |
| 12 | 10/29 | 13:00 | 61 | 60 | 100 | 29.47 | E | 7 | 0.03 |
| 13 | 10/29 | 12:00 | 61 | 60 | 100 | 29.53 | E | 6 | 0.13 |
| 14 | 10/29 | 11:00 | 62 | 61 | 99 | 29.57 | WNW | 7 | 0.01 |
| 15 | 10/29 | 10:00 | 61 | 60 | 100 | 29.59 | NNE | 3 | 0.02 |
| 16 | 10/29 | 09:00 | 60 | 59 | 100 | 29.61 | SSE | 8 | 0.01 |
| 17 | 10/29 | 08:00 | 60 | 59 | 100 | 29.62 | E | 11 | 0.05 |
| 18 | 10/29 | 07:00 | 59 | 59 | 100 | 29.67 | S | 3 | 0.04 |
| 19 | 10/29 | 06:00 | 59 | 58 | 98 | 29.67 | E | 9 | 0.00 |
| 20 | 10/29 | 05:00 | 58 | 56 | 96 | 29.70 | ESE | 2 | 0.00 |
| 21 | 10/29 | 04:00 | 57 | 55 | 96 | 29.72 | E | 4 | 0.00 |
| 22 | 10/29 | 03:00 | 57 | 55 | 94 | 29.74 | ESE | 3 | 0.00 |
| 23 | 10/29 | 02:00 | 57 | 54 | 91 | 29.76 | ENE | 3 | 0.00 |
| 24 | 10/29 | 01:00 | 59 | 55 | 87 | 29.78 | ENE | 0 | 0.00 |